sensor_id;sensor_type;location;lat;lon;timestamp;P1;durP1;ratioP1;P2;durP2;ratioP2
64684;SDS011;51109;47.414;18.954;2024-03-07T00:02:44;34.75;;;20.08;;
64684;SDS011;51109;47.414;18.954;2024-03-07T00:05:13;35.40;;;20.40;;
64684;SDS011;51109;47.414;18.954;2024-03-07T00:07:39;38.75;;;21.40;;
64684;SDS011;51109;47.414;18.954;2024-03-07T00:10:06;37.30;;;23.13;;
64684;SDS011;51109;47.414;18.954;2024-03-07T00:12:33;33.63;;;21.02;;
64684;SDS011;51109;47.414;18.954;2024-03-07T00:15:01;38.22;;;22.35;;
64684;SDS011;51109;47.414;18.954;2024-03-07T00:20:00;35.20;;;20.20;;
64684;SDS011;51109;47.414;18.954;2024-03-07T00:22:27;34.50;;;20.60;;
64684;SDS011;51109;47.414;18.954;2024-03-07T00:24:55;36.45;;;20.60;;
64684;SDS011;51109;47.414;18.954;2024-03-07T00:27:21;39.17;;;21.05;;
64684;SDS011;51109;47.414;18.954;2024-03-07T00:29:48;31.20;;;19.85;;
64684;SDS011;51109;47.414;18.954;2024-03-07T00:32:19;35.47;;;20.08;;
64684;SDS011;51109;47.414;18.954;2024-03-07T00:34:49;33.05;;;19.20;;
64684;SDS011;51109;47.414;18.954;2024-03-07T00:37:15;30.27;;;18.70;;
64684;SDS011;51109;47.414;18.954;2024-03-07T00:39:42;30.13;;;18.00;;
64684;SDS011;51109;47.414;18.954;2024-03-07T00:42:08;29.40;;;17.17;;
64684;SDS011;51109;47.414;18.954;2024-03-07T00:44:34;25.77;;;16.02;;
64684;SDS011;51109;47.414;18.954;2024-03-07T00:47:00;26.95;;;16.58;;
64684;SDS011;51109;47.414;18.954;2024-03-07T00:49:30;25.50;;;16.58;;
64684;SDS011;51109;47.414;18.954;2024-03-07T00:51:56;27.40;;;16.33;;
64684;SDS011;51109;47.414;18.954;2024-03-07T00:54:23;23.90;;;15.75;;
64684;SDS011;51109;47.414;18.954;2024-03-07T00:56:49;27.10;;;14.90;;
64684;SDS011;51109;47.414;18.954;2024-03-07T00:59:15;26.10;;;16.17;;
64684;SDS011;51109;47.414;18.954;2024-03-07T01:01:41;25.50;;;16.15;;
64684;SDS011;51109;47.414;18.954;2024-03-07T01:04:07;25.83;;;16.20;;
64684;SDS011;51109;47.414;18.954;2024-03-07T01:06:33;27.85;;;16.15;;
64684;SDS011;51109;47.414;18.954;2024-03-07T01:09:01;27.55;;;16.77;;
64684;SDS011;51109;47.414;18.954;2024-03-07T01:11:27;24.95;;;16.52;;
64684;SDS011;51109;47.414;18.954;2024-03-07T01:13:54;29.17;;;16.98;;
64684;SDS011;51109;47.414;18.954;2024-03-07T01:16:21;29.92;;;17.80;;
64684;SDS011;51109;47.414;18.954;2024-03-07T01:18:47;27.48;;;17.08;;
64684;SDS011;51109;47.414;18.954;2024-03-07T01:21:14;26.23;;;16.05;;
64684;SDS011;51109;47.414;18.954;2024-03-07T01:23:40;23.95;;;15.35;;
64684;SDS011;51109;47.414;18.954;2024-03-07T01:26:06;29.92;;;17.00;;
64684;SDS011;51109;47.414;18.954;2024-03-07T01:28:33;25.15;;;15.80;;
64684;SDS011;51109;47.414;18.954;2024-03-07T01:30:59;26.30;;;16.05;;
64684;SDS011;51109;47.414;18.954;2024-03-07T01:33:25;24.95;;;16.10;;
64684;SDS011;51109;47.414;18.954;2024-03-07T01:35:51;24.08;;;15.40;;
64684;SDS011;51109;47.414;18.954;2024-03-07T01:38:17;24.00;;;14.77;;
64684;SDS011;51109;47.414;18.954;2024-03-07T01:40:43;22.52;;;14.32;;
64684;SDS011;51109;47.414;18.954;2024-03-07T01:43:09;23.63;;;14.52;;
64684;SDS011;51109;47.414;18.954;2024-03-07T01:45:36;20.83;;;12.30;;
64684;SDS011;51109;47.414;18.954;2024-03-07T01:48:05;18.17;;;11.80;;
64684;SDS011;51109;47.414;18.954;2024-03-07T01:50:34;19.90;;;12.18;;
64684;SDS011;51109;47.414;18.954;2024-03-07T01:53:03;16.63;;;11.15;;
64684;SDS011;51109;47.414;18.954;2024-03-07T01:55:31;18.33;;;11.68;;
64684;SDS011;51109;47.414;18.954;2024-03-07T01:57:58;22.38;;;11.95;;
64684;SDS011;51109;47.414;18.954;2024-03-07T02:00:25;19.02;;;11.98;;
64684;SDS011;51109;47.414;18.954;2024-03-07T02:02:52;20.33;;;12.40;;
64684;SDS011;51109;47.414;18.954;2024-03-07T02:05:18;20.48;;;12.40;;
64684;SDS011;51109;47.414;18.954;2024-03-07T02:07:45;19.70;;;11.73;;
64684;SDS011;51109;47.414;18.954;2024-03-07T02:10:11;17.00;;;10.32;;
64684;SDS011;51109;47.414;18.954;2024-03-07T02:12:37;17.33;;;10.93;;
64684;SDS011;51109;47.414;18.954;2024-03-07T02:15:03;16.52;;;10.10;;
64684;SDS011;51109;47.414;18.954;2024-03-07T02:17:29;16.17;;;10.50;;
64684;SDS011;51109;47.414;18.954;2024-03-07T02:19:55;15.00;;;9.05;;
64684;SDS011;51109;47.414;18.954;2024-03-07T02:22:21;16.20;;;9.82;;
64684;SDS011;51109;47.414;18.954;2024-03-07T02:24:47;15.35;;;9.90;;
64684;SDS011;51109;47.414;18.954;2024-03-07T02:27:13;19.60;;;11.27;;
64684;SDS011;51109;47.414;18.954;2024-03-07T02:29:42;21.02;;;10.20;;
64684;SDS011;51109;47.414;18.954;2024-03-07T02:32:08;24.02;;;10.70;;
64684;SDS011;51109;47.414;18.954;2024-03-07T02:34:35;16.42;;;9.57;;
64684;SDS011;51109;47.414;18.954;2024-03-07T02:37:01;14.82;;;9.73;;
64684;SDS011;51109;47.414;18.954;2024-03-07T02:39:27;13.80;;;9.13;;
64684;SDS011;51109;47.414;18.954;2024-03-07T02:41:53;14.50;;;8.77;;
64684;SDS011;51109;47.414;18.954;2024-03-07T02:44:19;18.70;;;10.00;;
64684;SDS011;51109;47.414;18.954;2024-03-07T02:46:45;14.10;;;9.27;;
64684;SDS011;51109;47.414;18.954;2024-03-07T02:49:14;14.70;;;8.43;;
64684;SDS011;51109;47.414;18.954;2024-03-07T02:51:40;15.52;;;9.30;;
64684;SDS011;51109;47.414;18.954;2024-03-07T02:54:08;12.07;;;8.07;;
64684;SDS011;51109;47.414;18.954;2024-03-07T02:56:34;15.73;;;8.50;;
64684;SDS011;51109;47.414;18.954;2024-03-07T02:59:00;14.80;;;8.30;;
64684;SDS011;51109;47.414;18.954;2024-03-07T03:01:26;15.13;;;9.00;;
64684;SDS011;51109;47.414;18.954;2024-03-07T03:03:52;13.05;;;8.50;;
64684;SDS011;51109;47.414;18.954;2024-03-07T03:06:18;13.63;;;8.32;;
64684;SDS011;51109;47.414;18.954;2024-03-07T03:08:46;13.07;;;8.25;;
64684;SDS011;51109;47.414;18.954;2024-03-07T03:11:12;13.25;;;8.50;;
64684;SDS011;51109;47.414;18.954;2024-03-07T03:13:39;11.02;;;7.63;;
64684;SDS011;51109;47.414;18.954;2024-03-07T03:16:08;13.07;;;8.77;;
64684;SDS011;51109;47.414;18.954;2024-03-07T03:18:37;12.02;;;8.10;;
64684;SDS011;51109;47.414;18.954;2024-03-07T03:21:03;10.63;;;7.55;;
64684;SDS011;51109;47.414;18.954;2024-03-07T03:23:30;11.98;;;7.88;;
64684;SDS011;51109;47.414;18.954;2024-03-07T03:25:55;11.90;;;7.80;;
64684;SDS011;51109;47.414;18.954;2024-03-07T03:28:22;12.52;;;7.65;;
64684;SDS011;51109;47.414;18.954;2024-03-07T03:30:48;11.63;;;8.32;;
64684;SDS011;51109;47.414;18.954;2024-03-07T03:33:15;11.35;;;7.80;;
64684;SDS011;51109;47.414;18.954;2024-03-07T03:35:41;12.95;;;7.57;;
64684;SDS011;51109;47.414;18.954;2024-03-07T03:38:07;14.38;;;7.70;;
64684;SDS011;51109;47.414;18.954;2024-03-07T03:40:33;11.18;;;6.95;;
64684;SDS011;51109;47.414;18.954;2024-03-07T03:43:00;12.05;;;7.55;;
64684;SDS011;51109;47.414;18.954;2024-03-07T03:45:26;11.05;;;7.40;;
64684;SDS011;51109;47.414;18.954;2024-03-07T03:47:52;14.07;;;8.02;;
64684;SDS011;51109;47.414;18.954;2024-03-07T03:50:18;11.98;;;6.88;;
64684;SDS011;51109;47.414;18.954;2024-03-07T03:52:44;9.63;;;6.68;;
64684;SDS011;51109;47.414;18.954;2024-03-07T03:55:10;10.05;;;7.30;;
64684;SDS011;51109;47.414;18.954;2024-03-07T03:57:41;10.40;;;6.70;;
64684;SDS011;51109;47.414;18.954;2024-03-07T04:00:08;11.10;;;6.82;;
64684;SDS011;51109;47.414;18.954;2024-03-07T04:02:38;11.60;;;7.30;;
64684;SDS011;51109;47.414;18.954;2024-03-07T04:05:08;9.18;;;6.30;;
64684;SDS011;51109;47.414;18.954;2024-03-07T04:07:36;8.85;;;6.35;;
64684;SDS011;51109;47.414;18.954;2024-03-07T04:10:03;10.90;;;6.78;;
64684;SDS011;51109;47.414;18.954;2024-03-07T04:12:32;11.80;;;6.53;;
64684;SDS011;51109;47.414;18.954;2024-03-07T04:15:03;8.77;;;6.30;;
64684;SDS011;51109;47.414;18.954;2024-03-07T04:17:33;11.93;;;7.32;;
64684;SDS011;51109;47.414;18.954;2024-03-07T04:20:02;10.73;;;7.03;;
64684;SDS011;51109;47.414;18.954;2024-03-07T04:24:59;11.73;;;6.60;;
64684;SDS011;51109;47.414;18.954;2024-03-07T04:27:26;9.65;;;6.40;;
64684;SDS011;51109;47.414;18.954;2024-03-07T04:29:52;9.63;;;6.25;;
64684;SDS011;51109;47.414;18.954;2024-03-07T04:32:18;11.20;;;6.90;;
64684;SDS011;51109;47.414;18.954;2024-03-07T04:34:44;9.55;;;6.47;;
64684;SDS011;51109;47.414;18.954;2024-03-07T04:37:10;10.23;;;6.72;;
64684;SDS011;51109;47.414;18.954;2024-03-07T04:39:37;9.45;;;6.80;;
64684;SDS011;51109;47.414;18.954;2024-03-07T04:42:04;10.98;;;6.88;;
64684;SDS011;51109;47.414;18.954;2024-03-07T04:44:32;10.88;;;6.55;;
64684;SDS011;51109;47.414;18.954;2024-03-07T04:46:58;10.40;;;7.22;;
64684;SDS011;51109;47.414;18.954;2024-03-07T04:49:26;10.27;;;7.18;;
64684;SDS011;51109;47.414;18.954;2024-03-07T04:51:54;12.65;;;6.47;;
64684;SDS011;51109;47.414;18.954;2024-03-07T04:54:21;14.48;;;7.43;;
64684;SDS011;51109;47.414;18.954;2024-03-07T04:56:49;12.48;;;7.60;;
64684;SDS011;51109;47.414;18.954;2024-03-07T04:59:16;11.90;;;7.72;;
64684;SDS011;51109;47.414;18.954;2024-03-07T05:01:43;11.57;;;6.85;;
64684;SDS011;51109;47.414;18.954;2024-03-07T05:04:09;11.23;;;6.57;;
64684;SDS011;51109;47.414;18.954;2024-03-07T05:06:37;10.15;;;6.85;;
64684;SDS011;51109;47.414;18.954;2024-03-07T05:09:03;12.43;;;6.55;;
64684;SDS011;51109;47.414;18.954;2024-03-07T05:11:30;13.15;;;6.18;;
64684;SDS011;51109;47.414;18.954;2024-03-07T05:13:57;11.65;;;6.90;;
64684;SDS011;51109;47.414;18.954;2024-03-07T05:16:26;11.18;;;7.32;;
64684;SDS011;51109;47.414;18.954;2024-03-07T05:18:53;11.20;;;7.05;;
64684;SDS011;51109;47.414;18.954;2024-03-07T05:21:19;12.57;;;7.50;;
64684;SDS011;51109;47.414;18.954;2024-03-07T05:24:04;13.15;;;7.53;;
64684;SDS011;51109;47.414;18.954;2024-03-07T05:26:30;10.88;;;7.68;;
64684;SDS011;51109;47.414;18.954;2024-03-07T05:29:01;13.05;;;7.50;;
64684;SDS011;51109;47.414;18.954;2024-03-07T05:31:31;12.77;;;7.35;;
64684;SDS011;51109;47.414;18.954;2024-03-07T05:34:00;15.68;;;8.98;;
64684;SDS011;51109;47.414;18.954;2024-03-07T05:36:29;11.25;;;7.60;;
64684;SDS011;51109;47.414;18.954;2024-03-07T05:38:56;13.23;;;8.38;;
64684;SDS011;51109;47.414;18.954;2024-03-07T05:41:22;14.15;;;9.07;;
64684;SDS011;51109;47.414;18.954;2024-03-07T05:43:47;13.27;;;8.68;;
64684;SDS011;51109;47.414;18.954;2024-03-07T05:46:16;15.93;;;8.60;;
64684;SDS011;51109;47.414;18.954;2024-03-07T05:48:42;14.73;;;9.18;;
64684;SDS011;51109;47.414;18.954;2024-03-07T05:51:11;15.88;;;9.35;;
64684;SDS011;51109;47.414;18.954;2024-03-07T05:53:37;15.73;;;10.07;;
64684;SDS011;51109;47.414;18.954;2024-03-07T05:56:03;14.73;;;9.07;;
64684;SDS011;51109;47.414;18.954;2024-03-07T05:58:29;13.65;;;7.93;;
64684;SDS011;51109;47.414;18.954;2024-03-07T06:00:55;13.35;;;8.23;;
64684;SDS011;51109;47.414;18.954;2024-03-07T06:03:20;13.50;;;8.40;;
64684;SDS011;51109;47.414;18.954;2024-03-07T06:05:46;14.68;;;8.00;;
64684;SDS011;51109;47.414;18.954;2024-03-07T06:08:14;19.48;;;9.57;;
64684;SDS011;51109;47.414;18.954;2024-03-07T06:10:42;11.73;;;8.27;;
64684;SDS011;51109;47.414;18.954;2024-03-07T06:13:09;13.80;;;8.25;;
64684;SDS011;51109;47.414;18.954;2024-03-07T06:15:37;12.73;;;7.88;;
64684;SDS011;51109;47.414;18.954;2024-03-07T06:18:06;15.07;;;9.30;;
64684;SDS011;51109;47.414;18.954;2024-03-07T06:20:36;12.60;;;8.77;;
64684;SDS011;51109;47.414;18.954;2024-03-07T06:23:03;15.60;;;8.40;;
64684;SDS011;51109;47.414;18.954;2024-03-07T06:25:31;11.40;;;7.45;;
64684;SDS011;51109;47.414;18.954;2024-03-07T06:28:26;10.80;;;7.10;;
64684;SDS011;51109;47.414;18.954;2024-03-07T06:30:56;17.05;;;7.55;;
64684;SDS011;51109;47.414;18.954;2024-03-07T06:33:21;14.23;;;8.10;;
64684;SDS011;51109;47.414;18.954;2024-03-07T06:35:47;12.88;;;7.78;;
64684;SDS011;51109;47.414;18.954;2024-03-07T06:38:13;11.55;;;7.72;;
64684;SDS011;51109;47.414;18.954;2024-03-07T06:40:39;11.57;;;7.63;;
64684;SDS011;51109;47.414;18.954;2024-03-07T06:43:07;12.23;;;8.02;;
64684;SDS011;51109;47.414;18.954;2024-03-07T06:45:36;13.25;;;7.82;;
64684;SDS011;51109;47.414;18.954;2024-03-07T06:48:03;12.10;;;7.22;;
64684;SDS011;51109;47.414;18.954;2024-03-07T06:50:35;13.05;;;7.20;;
64684;SDS011;51109;47.414;18.954;2024-03-07T06:53:02;9.25;;;6.95;;
64684;SDS011;51109;47.414;18.954;2024-03-07T06:55:28;9.73;;;6.72;;
64684;SDS011;51109;47.414;18.954;2024-03-07T06:57:54;8.80;;;6.43;;
64684;SDS011;51109;47.414;18.954;2024-03-07T07:00:20;10.02;;;5.55;;
64684;SDS011;51109;47.414;18.954;2024-03-07T07:02:46;11.13;;;6.10;;
64684;SDS011;51109;47.414;18.954;2024-03-07T07:05:13;8.07;;;5.50;;
64684;SDS011;51109;47.414;18.954;2024-03-07T07:07:49;7.95;;;6.18;;
64684;SDS011;51109;47.414;18.954;2024-03-07T07:10:18;9.00;;;6.15;;
64684;SDS011;51109;47.414;18.954;2024-03-07T07:12:45;11.93;;;5.95;;
64684;SDS011;51109;47.414;18.954;2024-03-07T07:15:11;9.35;;;6.22;;
64684;SDS011;51109;47.414;18.954;2024-03-07T07:17:38;8.65;;;5.25;;
64684;SDS011;51109;47.414;18.954;2024-03-07T07:20:04;7.10;;;5.70;;
64684;SDS011;51109;47.414;18.954;2024-03-07T07:22:38;7.97;;;5.22;;
64684;SDS011;51109;47.414;18.954;2024-03-07T07:25:04;7.43;;;5.35;;
64684;SDS011;51109;47.414;18.954;2024-03-07T07:27:34;7.78;;;5.47;;
64684;SDS011;51109;47.414;18.954;2024-03-07T07:30:00;7.65;;;5.45;;
64684;SDS011;51109;47.414;18.954;2024-03-07T07:32:25;6.43;;;4.88;;
64684;SDS011;51109;47.414;18.954;2024-03-07T07:34:53;8.82;;;5.20;;
64684;SDS011;51109;47.414;18.954;2024-03-07T07:37:19;7.53;;;5.70;;
64684;SDS011;51109;47.414;18.954;2024-03-07T07:39:45;8.70;;;5.88;;
64684;SDS011;51109;47.414;18.954;2024-03-07T07:42:11;8.57;;;5.40;;
64684;SDS011;51109;47.414;18.954;2024-03-07T07:44:37;10.93;;;6.15;;
64684;SDS011;51109;47.414;18.954;2024-03-07T07:47:03;9.48;;;5.63;;
64684;SDS011;51109;47.414;18.954;2024-03-07T07:49:31;6.40;;;5.10;;
64684;SDS011;51109;47.414;18.954;2024-03-07T07:51:56;9.32;;;6.47;;
64684;SDS011;51109;47.414;18.954;2024-03-07T07:54:22;10.13;;;5.97;;
64684;SDS011;51109;47.414;18.954;2024-03-07T07:56:49;9.27;;;6.07;;
64684;SDS011;51109;47.414;18.954;2024-03-07T07:59:16;8.43;;;6.00;;
64684;SDS011;51109;47.414;18.954;2024-03-07T08:01:42;9.70;;;5.90;;
64684;SDS011;51109;47.414;18.954;2024-03-07T08:04:08;8.43;;;6.10;;
64684;SDS011;51109;47.414;18.954;2024-03-07T08:06:35;7.28;;;5.15;;
64684;SDS011;51109;47.414;18.954;2024-03-07T08:09:00;6.70;;;5.40;;
64684;SDS011;51109;47.414;18.954;2024-03-07T08:11:26;8.23;;;5.18;;
64684;SDS011;51109;47.414;18.954;2024-03-07T08:13:52;5.75;;;4.90;;
64684;SDS011;51109;47.414;18.954;2024-03-07T08:16:18;6.72;;;4.88;;
64684;SDS011;51109;47.414;18.954;2024-03-07T08:18:44;6.47;;;5.18;;
64684;SDS011;51109;47.414;18.954;2024-03-07T08:21:09;10.10;;;5.20;;
64684;SDS011;51109;47.414;18.954;2024-03-07T08:23:36;7.32;;;5.55;;
64684;SDS011;51109;47.414;18.954;2024-03-07T08:26:02;7.65;;;5.18;;
64684;SDS011;51109;47.414;18.954;2024-03-07T08:28:30;6.47;;;5.22;;
64684;SDS011;51109;47.414;18.954;2024-03-07T08:30:56;7.57;;;4.93;;
64684;SDS011;51109;47.414;18.954;2024-03-07T08:33:23;8.77;;;5.55;;
64684;SDS011;51109;47.414;18.954;2024-03-07T08:35:49;6.85;;;5.85;;
64684;SDS011;51109;47.414;18.954;2024-03-07T08:38:18;7.90;;;5.85;;
64684;SDS011;51109;47.414;18.954;2024-03-07T08:40:44;6.47;;;5.47;;
64684;SDS011;51109;47.414;18.954;2024-03-07T08:43:09;11.02;;;5.78;;
64684;SDS011;51109;47.414;18.954;2024-03-07T08:45:35;10.70;;;6.20;;
64684;SDS011;51109;47.414;18.954;2024-03-07T08:48:01;11.95;;;5.88;;
64684;SDS011;51109;47.414;18.954;2024-03-07T08:50:33;6.72;;;5.32;;
64684;SDS011;51109;47.414;18.954;2024-03-07T08:53:00;8.15;;;6.22;;
64684;SDS011;51109;47.414;18.954;2024-03-07T08:55:26;10.00;;;6.15;;
64684;SDS011;51109;47.414;18.954;2024-03-07T08:57:52;7.88;;;6.25;;
64684;SDS011;51109;47.414;18.954;2024-03-07T09:00:18;7.97;;;5.65;;
64684;SDS011;51109;47.414;18.954;2024-03-07T09:02:55;7.28;;;5.78;;
64684;SDS011;51109;47.414;18.954;2024-03-07T09:05:25;6.38;;;5.38;;
64684;SDS011;51109;47.414;18.954;2024-03-07T09:07:51;5.97;;;5.35;;
64684;SDS011;51109;47.414;18.954;2024-03-07T09:10:18;7.72;;;5.43;;
64684;SDS011;51109;47.414;18.954;2024-03-07T09:12:45;7.07;;;5.95;;
64684;SDS011;51109;47.414;18.954;2024-03-07T09:15:13;9.23;;;5.35;;
64684;SDS011;51109;47.414;18.954;2024-03-07T09:17:41;6.47;;;5.65;;
64684;SDS011;51109;47.414;18.954;2024-03-07T09:20:07;10.25;;;5.93;;
64684;SDS011;51109;47.414;18.954;2024-03-07T09:22:42;8.63;;;6.30;;
64684;SDS011;51109;47.414;18.954;2024-03-07T09:25:08;9.32;;;6.72;;
64684;SDS011;51109;47.414;18.954;2024-03-07T09:27:35;8.38;;;7.00;;
64684;SDS011;51109;47.414;18.954;2024-03-07T09:30:01;10.65;;;8.07;;
64684;SDS011;51109;47.414;18.954;2024-03-07T09:32:27;10.25;;;7.82;;
64684;SDS011;51109;47.414;18.954;2024-03-07T09:34:58;8.10;;;5.55;;
64684;SDS011;51109;47.414;18.954;2024-03-07T09:37:25;6.75;;;5.10;;
64684;SDS011;51109;47.414;18.954;2024-03-07T09:39:51;7.97;;;5.60;;
64684;SDS011;51109;47.414;18.954;2024-03-07T09:42:17;6.60;;;5.70;;
64684;SDS011;51109;47.414;18.954;2024-03-07T09:44:43;8.43;;;5.20;;
64684;SDS011;51109;47.414;18.954;2024-03-07T09:47:12;7.45;;;5.75;;
64684;SDS011;51109;47.414;18.954;2024-03-07T09:49:39;8.10;;;5.60;;
64684;SDS011;51109;47.414;18.954;2024-03-07T09:52:06;6.22;;;5.03;;
64684;SDS011;51109;47.414;18.954;2024-03-07T09:54:37;7.10;;;5.30;;
64684;SDS011;51109;47.414;18.954;2024-03-07T09:57:03;7.03;;;5.30;;
64684;SDS011;51109;47.414;18.954;2024-03-07T09:59:36;8.40;;;5.30;;
64684;SDS011;51109;47.414;18.954;2024-03-07T10:02:05;6.05;;;5.28;;
64684;SDS011;51109;47.414;18.954;2024-03-07T10:04:38;10.25;;;6.20;;
64684;SDS011;51109;47.414;18.954;2024-03-07T10:07:10;9.55;;;5.40;;
64684;SDS011;51109;47.414;18.954;2024-03-07T10:09:39;6.78;;;5.38;;
64684;SDS011;51109;47.414;18.954;2024-03-07T10:12:06;7.03;;;5.90;;
64684;SDS011;51109;47.414;18.954;2024-03-07T10:14:35;8.57;;;5.15;;
64684;SDS011;51109;47.414;18.954;2024-03-07T10:17:02;6.32;;;5.70;;
64684;SDS011;51109;47.414;18.954;2024-03-07T10:19:28;6.90;;;5.32;;
64684;SDS011;51109;47.414;18.954;2024-03-07T10:21:56;6.57;;;5.18;;
64684;SDS011;51109;47.414;18.954;2024-03-07T10:24:27;8.05;;;5.63;;
64684;SDS011;51109;47.414;18.954;2024-03-07T10:26:53;6.43;;;5.70;;
64684;SDS011;51109;47.414;18.954;2024-03-07T10:29:23;7.00;;;5.75;;
64684;SDS011;51109;47.414;18.954;2024-03-07T10:31:49;8.95;;;6.90;;
64684;SDS011;51109;47.414;18.954;2024-03-07T10:34:15;9.25;;;6.07;;
64684;SDS011;51109;47.414;18.954;2024-03-07T10:36:42;8.15;;;6.13;;
64684;SDS011;51109;47.414;18.954;2024-03-07T10:39:08;10.75;;;6.70;;
64684;SDS011;51109;47.414;18.954;2024-03-07T10:41:47;9.05;;;6.25;;
64684;SDS011;51109;47.414;18.954;2024-03-07T10:44:20;8.27;;;6.57;;
64684;SDS011;51109;47.414;18.954;2024-03-07T10:46:54;9.32;;;7.13;;
64684;SDS011;51109;47.414;18.954;2024-03-07T10:49:20;8.68;;;6.43;;
64684;SDS011;51109;47.414;18.954;2024-03-07T10:54:57;8.18;;;7.15;;
64684;SDS011;51109;47.414;18.954;2024-03-07T11:00:21;11.35;;;7.03;;
64684;SDS011;51109;47.414;18.954;2024-03-07T11:03:04;11.85;;;7.20;;
64684;SDS011;51109;47.414;18.954;2024-03-07T11:05:34;8.45;;;6.43;;
64684;SDS011;51109;47.414;18.954;2024-03-07T11:08:01;11.35;;;7.63;;
64684;SDS011;51109;47.414;18.954;2024-03-07T11:10:32;11.63;;;7.30;;
64684;SDS011;51109;47.414;18.954;2024-03-07T11:13:00;14.43;;;8.15;;
64684;SDS011;51109;47.414;18.954;2024-03-07T11:15:26;16.23;;;8.65;;
64684;SDS011;51109;47.414;18.954;2024-03-07T11:17:53;11.38;;;8.05;;
64684;SDS011;51109;47.414;18.954;2024-03-07T11:20:20;11.88;;;7.70;;
64684;SDS011;51109;47.414;18.954;2024-03-07T11:22:47;14.02;;;8.38;;
64684;SDS011;51109;47.414;18.954;2024-03-07T11:25:15;9.70;;;6.93;;
64684;SDS011;51109;47.414;18.954;2024-03-07T11:30:22;10.13;;;7.88;;
64684;SDS011;51109;47.414;18.954;2024-03-07T11:32:49;8.63;;;7.00;;
64684;SDS011;51109;47.414;18.954;2024-03-07T11:35:19;10.77;;;7.22;;
64684;SDS011;51109;47.414;18.954;2024-03-07T11:37:56;12.20;;;6.90;;
64684;SDS011;51109;47.414;18.954;2024-03-07T11:42:53;15.20;;;7.97;;
64684;SDS011;51109;47.414;18.954;2024-03-07T11:45:24;7.93;;;6.68;;
64684;SDS011;51109;47.414;18.954;2024-03-07T11:47:54;15.13;;;6.93;;
64684;SDS011;51109;47.414;18.954;2024-03-07T11:50:37;9.57;;;7.40;;
64684;SDS011;51109;47.414;18.954;2024-03-07T11:53:03;10.13;;;7.28;;
64684;SDS011;51109;47.414;18.954;2024-03-07T11:55:38;12.63;;;8.32;;
64684;SDS011;51109;47.414;18.954;2024-03-07T11:58:11;11.68;;;7.35;;
64684;SDS011;51109;47.414;18.954;2024-03-07T12:00:47;8.40;;;6.85;;
64684;SDS011;51109;47.414;18.954;2024-03-07T12:03:15;10.13;;;7.05;;
64684;SDS011;51109;47.414;18.954;2024-03-07T12:05:48;9.18;;;6.97;;
64684;SDS011;51109;47.414;18.954;2024-03-07T12:08:17;12.25;;;8.18;;
64684;SDS011;51109;47.414;18.954;2024-03-07T12:10:43;10.13;;;7.75;;
64684;SDS011;51109;47.414;18.954;2024-03-07T12:13:10;8.65;;;6.82;;
64684;SDS011;51109;47.414;18.954;2024-03-07T12:15:37;8.55;;;7.03;;
64684;SDS011;51109;47.414;18.954;2024-03-07T12:18:04;9.13;;;7.20;;
64684;SDS011;51109;47.414;18.954;2024-03-07T12:20:37;10.18;;;7.47;;
64684;SDS011;51109;47.414;18.954;2024-03-07T12:23:06;12.93;;;8.30;;
64684;SDS011;51109;47.414;18.954;2024-03-07T12:25:37;10.48;;;7.25;;
64684;SDS011;51109;47.414;18.954;2024-03-07T12:28:08;13.40;;;8.18;;
64684;SDS011;51109;47.414;18.954;2024-03-07T12:33:11;12.13;;;8.18;;
64684;SDS011;51109;47.414;18.954;2024-03-07T12:35:42;11.55;;;8.70;;
64684;SDS011;51109;47.414;18.954;2024-03-07T12:38:09;10.38;;;8.40;;
64684;SDS011;51109;47.414;18.954;2024-03-07T12:40:36;12.50;;;8.05;;
64684;SDS011;51109;47.414;18.954;2024-03-07T12:43:12;11.35;;;8.20;;
64684;SDS011;51109;47.414;18.954;2024-03-07T12:45:43;12.38;;;8.30;;
64684;SDS011;51109;47.414;18.954;2024-03-07T12:48:09;11.90;;;8.52;;
64684;SDS011;51109;47.414;18.954;2024-03-07T12:50:39;11.15;;;8.32;;
64684;SDS011;51109;47.414;18.954;2024-03-07T12:53:06;12.18;;;8.73;;
64684;SDS011;51109;47.414;18.954;2024-03-07T12:55:38;13.60;;;7.82;;
64684;SDS011;51109;47.414;18.954;2024-03-07T12:58:07;12.75;;;8.30;;
64684;SDS011;51109;47.414;18.954;2024-03-07T13:00:38;11.88;;;8.05;;
64684;SDS011;51109;47.414;18.954;2024-03-07T13:03:06;13.50;;;8.48;;
64684;SDS011;51109;47.414;18.954;2024-03-07T13:05:34;14.23;;;9.10;;
64684;SDS011;51109;47.414;18.954;2024-03-07T13:08:00;15.95;;;9.25;;
64684;SDS011;51109;47.414;18.954;2024-03-07T13:10:26;12.93;;;8.73;;
64684;SDS011;51109;47.414;18.954;2024-03-07T13:12:51;15.77;;;9.38;;
64684;SDS011;51109;47.414;18.954;2024-03-07T13:15:18;13.65;;;7.93;;
64684;SDS011;51109;47.414;18.954;2024-03-07T13:17:46;14.00;;;7.57;;
64684;SDS011;51109;47.414;18.954;2024-03-07T13:20:14;13.70;;;8.55;;
64684;SDS011;51109;47.414;18.954;2024-03-07T13:22:41;11.85;;;8.18;;
64684;SDS011;51109;47.414;18.954;2024-03-07T13:25:09;12.52;;;8.50;;
64684;SDS011;51109;47.414;18.954;2024-03-07T13:27:43;14.43;;;8.73;;
64684;SDS011;51109;47.414;18.954;2024-03-07T13:30:16;15.18;;;9.20;;
64684;SDS011;51109;47.414;18.954;2024-03-07T13:32:49;13.52;;;9.38;;
64684;SDS011;51109;47.414;18.954;2024-03-07T13:35:16;13.52;;;8.57;;
64684;SDS011;51109;47.414;18.954;2024-03-07T13:37:45;12.65;;;9.18;;
64684;SDS011;51109;47.414;18.954;2024-03-07T13:40:12;14.68;;;9.20;;
64684;SDS011;51109;47.414;18.954;2024-03-07T13:42:59;10.88;;;8.30;;
64684;SDS011;51109;47.414;18.954;2024-03-07T13:45:28;13.75;;;9.65;;
64684;SDS011;51109;47.414;18.954;2024-03-07T13:48:01;13.18;;;8.70;;
64684;SDS011;51109;47.414;18.954;2024-03-07T13:50:31;10.45;;;8.40;;
64684;SDS011;51109;47.414;18.954;2024-03-07T13:52:59;11.43;;;8.88;;
64684;SDS011;51109;47.414;18.954;2024-03-07T13:55:45;14.10;;;8.93;;
64684;SDS011;51109;47.414;18.954;2024-03-07T13:58:17;12.88;;;8.57;;
64684;SDS011;51109;47.414;18.954;2024-03-07T14:18:18;11.95;;;8.35;;
64684;SDS011;51109;47.414;18.954;2024-03-07T14:21:34;14.90;;;8.80;;
64684;SDS011;51109;47.414;18.954;2024-03-07T14:32:29;15.45;;;9.45;;
64684;SDS011;51109;47.414;18.954;2024-03-07T14:35:11;14.88;;;9.75;;
64684;SDS011;51109;47.414;18.954;2024-03-07T14:37:52;14.80;;;10.45;;
64684;SDS011;51109;47.414;18.954;2024-03-07T14:40:26;18.63;;;10.05;;
64684;SDS011;51109;47.414;18.954;2024-03-07T14:42:54;16.50;;;10.40;;
64684;SDS011;51109;47.414;18.954;2024-03-07T14:45:27;18.38;;;11.30;;
64684;SDS011;51109;47.414;18.954;2024-03-07T14:48:03;15.63;;;10.25;;
64684;SDS011;51109;47.414;18.954;2024-03-07T14:50:30;15.50;;;10.10;;
64684;SDS011;51109;47.414;18.954;2024-03-07T14:52:58;16.05;;;10.48;;
64684;SDS011;51109;47.414;18.954;2024-03-07T14:55:24;14.45;;;10.02;;
64684;SDS011;51109;47.414;18.954;2024-03-07T14:57:50;14.77;;;10.02;;
64684;SDS011;51109;47.414;18.954;2024-03-07T15:00:16;17.40;;;10.73;;
64684;SDS011;51109;47.414;18.954;2024-03-07T15:02:52;17.45;;;10.75;;
64684;SDS011;51109;47.414;18.954;2024-03-07T15:05:22;12.95;;;9.20;;
64684;SDS011;51109;47.414;18.954;2024-03-07T15:07:50;14.73;;;9.43;;
64684;SDS011;51109;47.414;18.954;2024-03-07T15:10:21;14.55;;;9.45;;
64684;SDS011;51109;47.414;18.954;2024-03-07T15:12:52;13.27;;;9.68;;
64684;SDS011;51109;47.414;18.954;2024-03-07T15:15:18;15.50;;;10.07;;